sensor_id;sensor_type;location;lat;lon;timestamp;pressure;altitude;pressure_sealevel;temperature;humidity
65756;BME280;69208;47.502;18.940;2023-05-24T00:00:22;97905.56;;;15.08;100.00
65756;BME280;69208;47.502;18.940;2023-05-24T00:01:26;97912.53;;;15.12;100.00
65756;BME280;69208;47.502;18.940;2023-05-24T00:02:29;97913.75;;;15.27;100.00
65756;BME280;69208;47.502;18.940;2023-05-24T00:03:32;97902.53;;;15.30;100.00
65756;BME280;69208;47.502;18.940;2023-05-24T00:04:37;97903.19;;;15.27;100.00
65756;BME280;69208;47.502;18.940;2023-05-24T00:05:40;97890.78;;;15.28;100.00
65756;BME280;69208;47.502;18.940;2023-05-24T00:06:43;97890.88;;;15.19;100.00
65756;BME280;69208;47.502;18.940;2023-05-24T00:07:46;97892.66;;;15.27;100.00
65756;BME280;69208;47.502;18.940;2023-05-24T00:08:49;97891.53;;;15.28;100.00
65756;BME280;69208;47.502;18.940;2023-05-24T00:09:52;97890.00;;;15.27;100.00
65756;BME280;69208;47.502;18.940;2023-05-24T00:10:55;97892.53;;;15.23;100.00
65756;BME280;69208;47.502;18.940;2023-05-24T00:11:58;97891.88;;;15.27;100.00
65756;BME280;69208;47.502;18.940;2023-05-24T00:13:01;97888.34;;;15.35;100.00
65756;BME280;69208;47.502;18.940;2023-05-24T00:14:04;97897.25;;;15.30;100.00
65756;BME280;69208;47.502;18.940;2023-05-24T00:15:07;97893.97;;;15.45;100.00
65756;BME280;69208;47.502;18.940;2023-05-24T00:16:10;97887.16;;;15.44;100.00
65756;BME280;69208;47.502;18.940;2023-05-24T00:17:13;97895.69;;;15.29;100.00
65756;BME280;69208;47.502;18.940;2023-05-24T00:18:16;97893.50;;;15.31;100.00
65756;BME280;69208;47.502;18.940;2023-05-24T00:19:19;97902.84;;;15.29;100.00
65756;BME280;69208;47.502;18.940;2023-05-24T00:20:24;97899.25;;;15.33;100.00
65756;BME280;69208;47.502;18.940;2023-05-24T00:21:27;97905.37;;;15.25;100.00
65756;BME280;69208;47.502;18.940;2023-05-24T00:22:30;97900.44;;;15.23;100.00
65756;BME280;69208;47.502;18.940;2023-05-24T00:23:34;97892.28;;;15.29;100.00
65756;BME280;69208;47.502;18.940;2023-05-24T00:24:39;97891.78;;;15.35;100.00
65756;BME280;69208;47.502;18.940;2023-05-24T00:25:42;97889.34;;;15.30;100.00
65756;BME280;69208;47.502;18.940;2023-05-24T00:26:45;97888.25;;;15.31;100.00
65756;BME280;69208;47.502;18.940;2023-05-24T00:27:48;97886.50;;;15.35;100.00
65756;BME280;69208;47.502;18.940;2023-05-24T00:28:51;97881.63;;;15.37;100.00
65756;BME280;69208;47.502;18.940;2023-05-24T00:29:54;97884.50;;;15.32;100.00
65756;BME280;69208;47.502;18.940;2023-05-24T00:30:57;97879.25;;;15.32;100.00
65756;BME280;69208;47.502;18.940;2023-05-24T00:32:00;97874.72;;;15.33;100.00
65756;BME280;69208;47.502;18.940;2023-05-24T00:33:04;97878.69;;;15.39;100.00
65756;BME280;69208;47.502;18.940;2023-05-24T00:34:07;97882.31;;;15.34;100.00
65756;BME280;69208;47.502;18.940;2023-05-24T00:35:10;97876.47;;;15.41;100.00
65756;BME280;69208;47.502;18.940;2023-05-24T00:36:13;97878.78;;;15.42;100.00
65756;BME280;69208;47.502;18.940;2023-05-24T00:37:16;97874.16;;;15.39;100.00
65756;BME280;69208;47.502;18.940;2023-05-24T00:38:19;97880.56;;;15.38;100.00
65756;BME280;69208;47.502;18.940;2023-05-24T00:39:22;97879.44;;;15.39;100.00
65756;BME280;69208;47.502;18.940;2023-05-24T00:40:25;97881.31;;;15.39;100.00
65756;BME280;69208;47.502;18.940;2023-05-24T00:41:28;97880.00;;;15.33;100.00
65756;BME280;69208;47.502;18.940;2023-05-24T00:42:31;97878.34;;;15.28;100.00
65756;BME280;69208;47.502;18.940;2023-05-24T00:43:34;97879.34;;;15.23;100.00
65756;BME280;69208;47.502;18.940;2023-05-24T00:44:38;97873.16;;;15.19;100.00
65756;BME280;69208;47.502;18.940;2023-05-24T00:45:42;97874.50;;;15.25;100.00
65756;BME280;69208;47.502;18.940;2023-05-24T00:46:45;97872.50;;;15.22;100.00
65756;BME280;69208;47.502;18.940;2023-05-24T00:47:48;97874.81;;;15.24;100.00
65756;BME280;69208;47.502;18.940;2023-05-24T00:48:51;97881.53;;;15.21;100.00
65756;BME280;69208;47.502;18.940;2023-05-24T00:49:55;97876.69;;;15.23;100.00
65756;BME280;69208;47.502;18.940;2023-05-24T00:50:58;97877.13;;;15.25;100.00
65756;BME280;69208;47.502;18.940;2023-05-24T00:52:01;97883.41;;;15.21;100.00
65756;BME280;69208;47.502;18.940;2023-05-24T00:53:05;97875.59;;;15.24;100.00
65756;BME280;69208;47.502;18.940;2023-05-24T00:54:08;97877.13;;;15.25;100.00
65756;BME280;69208;47.502;18.940;2023-05-24T00:55:11;97879.56;;;15.18;100.00
65756;BME280;69208;47.502;18.940;2023-05-24T00:56:15;97885.03;;;15.13;100.00
65756;BME280;69208;47.502;18.940;2023-05-24T00:57:19;97875.50;;;15.21;100.00
65756;BME280;69208;47.502;18.940;2023-05-24T00:58:23;97876.47;;;15.16;100.00
65756;BME280;69208;47.502;18.940;2023-05-24T00:59:28;97883.16;;;15.26;100.00
65756;BME280;69208;47.502;18.940;2023-05-24T01:00:32;97880.88;;;15.24;100.00
65756;BME280;69208;47.502;18.940;2023-05-24T01:01:35;97883.50;;;15.12;100.00
65756;BME280;69208;47.502;18.940;2023-05-24T01:02:39;97880.75;;;15.09;100.00
65756;BME280;69208;47.502;18.940;2023-05-24T01:03:42;97880.41;;;14.98;100.00
65756;BME280;69208;47.502;18.940;2023-05-24T01:04:45;97886.41;;;14.86;100.00
65756;BME280;69208;47.502;18.940;2023-05-24T01:05:50;97888.09;;;14.91;100.00
65756;BME280;69208;47.502;18.940;2023-05-24T01:07:13;97882.16;;;14.94;100.00
65756;BME280;69208;47.502;18.940;2023-05-24T01:11:25;97883.94;;;15.14;100.00
65756;BME280;69208;47.502;18.940;2023-05-24T01:12:58;97887.84;;;14.96;100.00
65756;BME280;69208;47.502;18.940;2023-05-24T01:16:06;97888.75;;;15.00;100.00
65756;BME280;69208;47.502;18.940;2023-05-24T01:17:20;97887.44;;;15.06;100.00
65756;BME280;69208;47.502;18.940;2023-05-24T01:18:32;97887.09;;;15.08;100.00
65756;BME280;69208;47.502;18.940;2023-05-24T01:19:43;97887.66;;;15.01;100.00
65756;BME280;69208;47.502;18.940;2023-05-24T01:21:50;97892.28;;;15.04;100.00
65756;BME280;69208;47.502;18.940;2023-05-24T01:22:56;97880.88;;;15.24;100.00
65756;BME280;69208;47.502;18.940;2023-05-24T01:27:12;97892.63;;;15.02;100.00
65756;BME280;69208;47.502;18.940;2023-05-24T01:28:17;97882.59;;;14.96;100.00
65756;BME280;69208;47.502;18.940;2023-05-24T01:29:21;97887.84;;;14.84;100.00
65756;BME280;69208;47.502;18.940;2023-05-24T01:30:26;97882.00;;;14.90;100.00
65756;BME280;69208;47.502;18.940;2023-05-24T01:31:30;97873.59;;;14.97;100.00
65756;BME280;69208;47.502;18.940;2023-05-24T01:32:33;97873.69;;;15.00;100.00
65756;BME280;69208;47.502;18.940;2023-05-24T01:33:43;97870.94;;;14.97;100.00
65756;BME280;69208;47.502;18.940;2023-05-24T01:34:46;97876.34;;;15.00;100.00
65756;BME280;69208;47.502;18.940;2023-05-24T01:35:49;97872.94;;;15.00;100.00
65756;BME280;69208;47.502;18.940;2023-05-24T01:36:52;97859.75;;;15.12;100.00
65756;BME280;69208;47.502;18.940;2023-05-24T01:37:55;97865.34;;;15.11;100.00
65756;BME280;69208;47.502;18.940;2023-05-24T01:38:58;97863.06;;;15.09;100.00
65756;BME280;69208;47.502;18.940;2023-05-24T01:40:02;97861.50;;;15.08;100.00
65756;BME280;69208;47.502;18.940;2023-05-24T01:41:42;97864.59;;;15.10;100.00
65756;BME280;69208;47.502;18.940;2023-05-24T01:43:03;97864.03;;;15.17;100.00
65756;BME280;69208;47.502;18.940;2023-05-24T01:44:26;97865.59;;;15.18;100.00
65756;BME280;69208;47.502;18.940;2023-05-24T01:45:44;97863.16;;;15.25;100.00
65756;BME280;69208;47.502;18.940;2023-05-24T01:46:59;97864.16;;;15.20;100.00
65756;BME280;69208;47.502;18.940;2023-05-24T01:48:38;97865.25;;;15.19;100.00
65756;BME280;69208;47.502;18.940;2023-05-24T01:49:49;97859.56;;;15.17;100.00
65756;BME280;69208;47.502;18.940;2023-05-24T01:50:59;97856.47;;;15.15;100.00
65756;BME280;69208;47.502;18.940;2023-05-24T01:52:07;97858.34;;;15.15;100.00
65756;BME280;69208;47.502;18.940;2023-05-24T01:53:16;97857.88;;;15.13;100.00
65756;BME280;69208;47.502;18.940;2023-05-24T01:54:23;97864.94;;;15.09;100.00
65756;BME280;69208;47.502;18.940;2023-05-24T01:55:29;97869.94;;;15.01;100.00
65756;BME280;69208;47.502;18.940;2023-05-24T01:56:33;97863.06;;;15.09;100.00
65756;BME280;69208;47.502;18.940;2023-05-24T01:57:37;97857.00;;;15.09;100.00
65756;BME280;69208;47.502;18.940;2023-05-24T01:58:44;97859.84;;;15.04;100.00
65756;BME280;69208;47.502;18.940;2023-05-24T01:59:48;97862.59;;;15.07;100.00
65756;BME280;69208;47.502;18.940;2023-05-24T02:00:53;97860.88;;;15.23;100.00
65756;BME280;69208;47.502;18.940;2023-05-24T02:01:56;97857.97;;;15.04;100.00
65756;BME280;69208;47.502;18.940;2023-05-24T02:03:00;97850.28;;;14.99;100.00
65756;BME280;69208;47.502;18.940;2023-05-24T02:04:05;97857.78;;;15.09;100.00
65756;BME280;69208;47.502;18.940;2023-05-24T02:05:09;97855.78;;;15.06;100.00
65756;BME280;69208;47.502;18.940;2023-05-24T02:06:12;97865.13;;;15.04;100.00
65756;BME280;69208;47.502;18.940;2023-05-24T02:07:15;97870.50;;;14.95;100.00
65756;BME280;69208;47.502;18.940;2023-05-24T02:08:19;97871.16;;;14.92;100.00
65756;BME280;69208;47.502;18.940;2023-05-24T02:09:22;97867.87;;;14.95;100.00
65756;BME280;69208;47.502;18.940;2023-05-24T02:10:26;97865.88;;;14.92;100.00
65756;BME280;69208;47.502;18.940;2023-05-24T02:11:29;97864.66;;;14.89;100.00
65756;BME280;69208;47.502;18.940;2023-05-24T02:12:32;97867.75;;;14.91;100.00
65756;BME280;69208;47.502;18.940;2023-05-24T02:13:35;97862.56;;;14.83;100.00
65756;BME280;69208;47.502;18.940;2023-05-24T02:14:38;97870.00;;;14.47;100.00
65756;BME280;69208;47.502;18.940;2023-05-24T02:15:41;97871.19;;;14.38;100.00
65756;BME280;69208;47.502;18.940;2023-05-24T02:16:44;97872.06;;;14.42;100.00
65756;BME280;69208;47.502;18.940;2023-05-24T02:17:48;97866.81;;;14.42;100.00
65756;BME280;69208;47.502;18.940;2023-05-24T02:18:51;97868.41;;;14.55;100.00
65756;BME280;69208;47.502;18.940;2023-05-24T02:19:54;97870.47;;;14.49;100.00
65756;BME280;69208;47.502;18.940;2023-05-24T02:20:57;97876.06;;;14.48;100.00
65756;BME280;69208;47.502;18.940;2023-05-24T02:22:00;97879.16;;;14.50;100.00
65756;BME280;69208;47.502;18.940;2023-05-24T02:23:03;97877.41;;;14.54;100.00
65756;BME280;69208;47.502;18.940;2023-05-24T02:24:06;97870.72;;;14.56;100.00
65756;BME280;69208;47.502;18.940;2023-05-24T02:25:09;97878.84;;;14.51;100.00
65756;BME280;69208;47.502;18.940;2023-05-24T02:26:12;97873.25;;;14.53;100.00
65756;BME280;69208;47.502;18.940;2023-05-24T02:27:16;97875.56;;;14.54;100.00
65756;BME280;69208;47.502;18.940;2023-05-24T02:28:19;97879.78;;;14.47;100.00
65756;BME280;69208;47.502;18.940;2023-05-24T02:29:22;97878.03;;;14.51;100.00
65756;BME280;69208;47.502;18.940;2023-05-24T02:30:25;97873.87;;;14.50;100.00
65756;BME280;69208;47.502;18.940;2023-05-24T02:31:29;97875.16;;;14.44;100.00
65756;BME280;69208;47.502;18.940;2023-05-24T02:32:33;97868.91;;;14.48;100.00
65756;BME280;69208;47.502;18.940;2023-05-24T02:33:39;97866.72;;;14.50;100.00
65756;BME280;69208;47.502;18.940;2023-05-24T02:34:42;97872.38;;;14.40;100.00
65756;BME280;69208;47.502;18.940;2023-05-24T02:35:45;97870.22;;;14.42;100.00
65756;BME280;69208;47.502;18.940;2023-05-24T02:36:49;97867.34;;;14.35;100.00
65756;BME280;69208;47.502;18.940;2023-05-24T02:37:52;97869.75;;;14.40;100.00
65756;BME280;69208;47.502;18.940;2023-05-24T02:38:55;97862.41;;;14.46;100.00
65756;BME280;69208;47.502;18.940;2023-05-24T02:39:58;97861.84;;;14.40;100.00
65756;BME280;69208;47.502;18.940;2023-05-24T02:41:01;97863.12;;;14.55;100.00
65756;BME280;69208;47.502;18.940;2023-05-24T02:42:04;97866.56;;;14.55;100.00
65756;BME280;69208;47.502;18.940;2023-05-24T02:43:07;97857.56;;;14.56;100.00
65756;BME280;69208;47.502;18.940;2023-05-24T02:44:11;97861.16;;;14.52;100.00
65756;BME280;69208;47.502;18.940;2023-05-24T02:45:14;97854.09;;;14.44;100.00
65756;BME280;69208;47.502;18.940;2023-05-24T02:46:17;97861.94;;;14.52;100.00
65756;BME280;69208;47.502;18.940;2023-05-24T02:47:20;97859.94;;;14.49;100.00
65756;BME280;69208;47.502;18.940;2023-05-24T02:48:23;97859.22;;;14.40;100.00
65756;BME280;69208;47.502;18.940;2023-05-24T02:49:26;97856.78;;;14.35;100.00
65756;BME280;69208;47.502;18.940;2023-05-24T02:50:30;97856.47;;;14.37;100.00
65756;BME280;69208;47.502;18.940;2023-05-24T02:51:33;97854.50;;;14.46;100.00
65756;BME280;69208;47.502;18.940;2023-05-24T02:52:36;97860.25;;;14.48;100.00
65756;BME280;69208;47.502;18.940;2023-05-24T02:53:39;97857.16;;;14.46;100.00
65756;BME280;69208;47.502;18.940;2023-05-24T02:54:45;97859.00;;;14.45;100.00
65756;BME280;69208;47.502;18.940;2023-05-24T02:55:48;97858.81;;;14.50;100.00
65756;BME280;69208;47.502;18.940;2023-05-24T02:56:52;97863.47;;;14.53;100.00
65756;BME280;69208;47.502;18.940;2023-05-24T02:57:58;97857.59;;;14.48;100.00
65756;BME280;69208;47.502;18.940;2023-05-24T02:59:01;97859.72;;;14.54;100.00
65756;BME280;69208;47.502;18.940;2023-05-24T03:00:04;97856.66;;;14.52;100.00
65756;BME280;69208;47.502;18.940;2023-05-24T03:01:12;97859.09;;;14.57;100.00
65756;BME280;69208;47.502;18.940;2023-05-24T03:02:16;97859.31;;;14.52;100.00
65756;BME280;69208;47.502;18.940;2023-05-24T03:03:21;97863.47;;;14.53;100.00
65756;BME280;69208;47.502;18.940;2023-05-24T03:04:24;97867.22;;;14.52;100.00
65756;BME280;69208;47.502;18.940;2023-05-24T03:05:27;97863.19;;;14.46;100.00
65756;BME280;69208;47.502;18.940;2023-05-24T03:06:30;97855.88;;;14.31;100.00
65756;BME280;69208;47.502;18.940;2023-05-24T03:07:34;97860.72;;;14.29;100.00
65756;BME280;69208;47.502;18.940;2023-05-24T03:08:37;97851.97;;;14.16;100.00
65756;BME280;69208;47.502;18.940;2023-05-24T03:09:40;97855.53;;;14.20;100.00
65756;BME280;69208;47.502;18.940;2023-05-24T03:10:43;97856.47;;;14.16;100.00
65756;BME280;69208;47.502;18.940;2023-05-24T03:11:46;97858.87;;;14.08;100.00
65756;BME280;69208;47.502;18.940;2023-05-24T03:12:49;97859.87;;;14.16;100.00
65756;BME280;69208;47.502;18.940;2023-05-24T03:13:52;97857.13;;;14.13;100.00
65756;BME280;69208;47.502;18.940;2023-05-24T03:14:55;97864.56;;;14.10;100.00
65756;BME280;69208;47.502;18.940;2023-05-24T03:15:58;97865.38;;;14.11;100.00
65756;BME280;69208;47.502;18.940;2023-05-24T03:17:01;97863.81;;;14.10;100.00
65756;BME280;69208;47.502;18.940;2023-05-24T03:18:04;97861.69;;;14.03;100.00
65756;BME280;69208;47.502;18.940;2023-05-24T03:19:07;97863.56;;;14.03;100.00
65756;BME280;69208;47.502;18.940;2023-05-24T03:20:11;97859.81;;;14.04;100.00
65756;BME280;69208;47.502;18.940;2023-05-24T03:21:15;97867.72;;;14.04;100.00
65756;BME280;69208;47.502;18.940;2023-05-24T03:22:18;97862.09;;;14.14;100.00
65756;BME280;69208;47.502;18.940;2023-05-24T03:23:21;97871.44;;;14.24;100.00
65756;BME280;69208;47.502;18.940;2023-05-24T03:24:24;97869.69;;;14.28;100.00
65756;BME280;69208;47.502;18.940;2023-05-24T03:25:27;97864.44;;;14.28;100.00
65756;BME280;69208;47.502;18.940;2023-05-24T03:26:30;97862.41;;;14.46;100.00
65756;BME280;69208;47.502;18.940;2023-05-24T03:27:34;97863.19;;;14.46;100.00
65756;BME280;69208;47.502;18.940;2023-05-24T03:28:38;97865.19;;;14.49;100.00
65756;BME280;69208;47.502;18.940;2023-05-24T03:29:42;97860.06;;;14.53;100.00
65756;BME280;69208;47.502;18.940;2023-05-24T03:30:45;97866.72;;;14.50;100.00
65756;BME280;69208;47.502;18.940;2023-05-24T03:31:48;97856.34;;;14.54;100.00
65756;BME280;69208;47.502;18.940;2023-05-24T03:32:51;97867.13;;;14.61;100.00
65756;BME280;69208;47.502;18.940;2023-05-24T03:33:54;97865.03;;;14.67;100.00
65756;BME280;69208;47.502;18.940;2023-05-24T03:34:58;97870.22;;;14.75;100.00
65756;BME280;69208;47.502;18.940;2023-05-24T03:36:04;97871.81;;;14.89;100.00
65756;BME280;69208;47.502;18.940;2023-05-24T03:37:07;97873.25;;;14.98;100.00
65756;BME280;69208;47.502;18.940;2023-05-24T03:38:10;97863.03;;;14.97;100.00
65756;BME280;69208;47.502;18.940;2023-05-24T03:39:13;97869.50;;;14.99;100.00
65756;BME280;69208;47.502;18.940;2023-05-24T03:40:16;97874.16;;;15.02;100.00
65756;BME280;69208;47.502;18.940;2023-05-24T03:41:19;97866.47;;;15.10;100.00
65756;BME280;69208;47.502;18.940;2023-05-24T03:42:22;97868.66;;;15.08;100.00
65756;BME280;69208;47.502;18.940;2023-05-24T03:43:25;97865.69;;;15.09;100.00
65756;BME280;69208;47.502;18.940;2023-05-24T03:44:28;97862.72;;;15.11;100.00
65756;BME280;69208;47.502;18.940;2023-05-24T03:45:31;97865.69;;;15.09;100.00
65756;BME280;69208;47.502;18.940;2023-05-24T03:46:41;97876.16;;;15.18;100.00
65756;BME280;69208;47.502;18.940;2023-05-24T03:47:44;97865.25;;;15.07;100.00
65756;BME280;69208;47.502;18.940;2023-05-24T03:48:47;97872.28;;;15.15;100.00
65756;BME280;69208;47.502;18.940;2023-05-24T03:49:51;97871.19;;;15.29;100.00
65756;BME280;69208;47.502;18.940;2023-05-24T03:50:54;97871.62;;;15.31;100.00
65756;BME280;69208;47.502;18.940;2023-05-24T03:51:57;97878.69;;;15.27;100.00
65756;BME280;69208;47.502;18.940;2023-05-24T03:53:00;97873.50;;;15.18;100.00
65756;BME280;69208;47.502;18.940;2023-05-24T03:54:03;97872.09;;;15.20;100.00
65756;BME280;69208;47.502;18.940;2023-05-24T03:55:06;97876.34;;;15.37;100.00
65756;BME280;69208;47.502;18.940;2023-05-24T03:56:08;97877.22;;;15.29;100.00
65756;BME280;69208;47.502;18.940;2023-05-24T03:57:12;97877.47;;;15.24;100.00
65756;BME280;69208;47.502;18.940;2023-05-24T03:58:15;97873.50;;;15.18;100.00
65756;BME280;69208;47.502;18.940;2023-05-24T03:59:18;97873.06;;;15.28;100.00
65756;BME280;69208;47.502;18.940;2023-05-24T04:00:21;97876.16;;;15.18;100.00
65756;BME280;69208;47.502;18.940;2023-05-24T04:01:24;97876.56;;;15.20;100.00
65756;BME280;69208;47.502;18.940;2023-05-24T04:02:35;97882.75;;;15.24;100.00
65756;BME280;69208;47.502;18.940;2023-05-24T04:03:39;97882.63;;;15.33;100.00
65756;BME280;69208;47.502;18.940;2023-05-24T04:04:43;97877.38;;;15.33;100.00
65756;BME280;69208;47.502;18.940;2023-05-24T04:05:47;97884.63;;;15.36;100.00
65756;BME280;69208;47.502;18.940;2023-05-24T04:06:50;97873.31;;;15.35;100.00
65756;BME280;69208;47.502;18.940;2023-05-24T04:07:53;97875.94;;;15.47;100.00
65756;BME280;69208;47.502;18.940;2023-05-24T04:08:57;97882.28;;;15.46;100.00
65756;BME280;69208;47.502;18.940;2023-05-24T04:10:00;97877.38;;;15.45;100.00
65756;BME280;69208;47.502;18.940;2023-05-24T04:11:03;97886.25;;;15.40;100.00
65756;BME280;69208;47.502;18.940;2023-05-24T04:12:06;97883.19;;;15.38;100.00
65756;BME280;69208;47.502;18.940;2023-05-24T04:13:10;97881.97;;;15.48;100.00
65756;BME280;69208;47.502;18.940;2023-05-24T04:14:13;97884.63;;;15.48;100.00
65756;BME280;69208;47.502;18.940;2023-05-24T04:15:16;97893.50;;;15.56;100.00
65756;BME280;69208;47.502;18.940;2023-05-24T04:16:19;97895.28;;;15.52;100.00
65756;BME280;69208;47.502;18.940;2023-05-24T04:17:22;97891.00;;;15.59;100.00
65756;BME280;69208;47.502;18.940;2023-05-24T04:18:26;97892.31;;;15.41;100.00
65756;BME280;69208;47.502;18.940;2023-05-24T04:19:29;97893.50;;;15.31;100.00
65756;BME280;69208;47.502;18.940;2023-05-24T04:20:32;97891.22;;;15.30;100.00
65756;BME280;69208;47.502;18.940;2023-05-24T04:21:36;97898.13;;;15.34;100.00
65756;BME280;69208;47.502;18.940;2023-05-24T04:22:39;97895.06;;;15.32;100.00
65756;BME280;69208;47.502;18.940;2023-05-24T04:23:42;97896.16;;;15.31;100.00
65756;BME280;69208;47.502;18.940;2023-05-24T04:24:45;97891.31;;;15.33;100.00
65756;BME280;69208;47.502;18.940;2023-05-24T04:25:48;97900.13;;;15.37;100.00
65756;BME280;69208;47.502;18.940;2023-05-24T04:26:51;97897.56;;;15.41;100.00
65756;BME280;69208;47.502;18.940;2023-05-24T04:27:54;97902.00;;;15.49;100.00
65756;BME280;69208;47.502;18.940;2023-05-24T04:28:59;97906.09;;;15.59;100.00
65756;BME280;69208;47.502;18.940;2023-05-24T04:30:02;97909.94;;;15.74;100.00
65756;BME280;69208;47.502;18.940;2023-05-24T04:31:06;97912.47;;;15.70;100.00
65756;BME280;69208;47.502;18.940;2023-05-24T04:32:09;97912.91;;;15.72;100.00
65756;BME280;69208;47.502;18.940;2023-05-24T04:33:12;97912.16;;;15.72;100.00
65756;BME280;69208;47.502;18.940;2023-05-24T04:34:15;97915.75;;;15.67;100.00
65756;BME280;69208;47.502;18.940;2023-05-24T04:35:18;97911.69;;;15.69;100.00
65756;BME280;69208;47.502;18.940;2023-05-24T04:36:21;97912.25;;;15.75;100.00
65756;BME280;69208;47.502;18.940;2023-05-24T04:37:25;97907.84;;;15.79;100.00
65756;BME280;69208;47.502;18.940;2023-05-24T04:38:29;97912.91;;;15.84;100.00
65756;BME280;69208;47.502;18.940;2023-05-24T04:39:33;97912.44;;;15.82;100.00
65756;BME280;69208;47.502;18.940;2023-05-24T04:40:37;97913.78;;;15.76;100.00
65756;BME280;69208;47.502;18.940;2023-05-24T04:41:40;97903.34;;;15.80;100.00
65756;BME280;69208;47.502;18.940;2023-05-24T04:42:43;97915.34;;;15.77;100.00
65756;BME280;69208;47.502;18.940;2023-05-24T04:43:46;97908.84;;;15.75;100.00
65756;BME280;69208;47.502;18.940;2023-05-24T04:44:49;97920.06;;;15.72;100.00
65756;BME280;69208;47.502;18.940;2023-05-24T04:45:55;97923.66;;;15.67;100.00
65756;BME280;69208;47.502;18.940;2023-05-24T04:46:58;97918.84;;;15.69;100.00
65756;BME280;69208;47.502;18.940;2023-05-24T04:48:04;97910.38;;;15.76;100.00
65756;BME280;69208;47.502;18.940;2023-05-24T04:49:07;97916.97;;;15.69;100.00
65756;BME280;69208;47.502;18.940;2023-05-24T04:50:12;97915.31;;;15.65;100.00
65756;BME280;69208;47.502;18.940;2023-05-24T04:51:15;97914.09;;;15.62;100.00
65756;BME280;69208;47.502;18.940;2023-05-24T04:52:18;97920.37;;;15.70;100.00
65756;BME280;69208;47.502;18.940;2023-05-24T04:53:21;97920.16;;;15.75;100.00
65756;BME280;69208;47.502;18.940;2023-05-24T04:54:24;97921.69;;;15.76;100.00
65756;BME280;69208;47.502;18.940;2023-05-24T04:55:27;97930.28;;;15.73;100.00
65756;BME280;69208;47.502;18.940;2023-05-24T04:56:30;97927.66;;;15.85;100.00
65756;BME280;69208;47.502;18.940;2023-05-24T04:57:33;97921.47;;;15.93;100.00
65756;BME280;69208;47.502;18.940;2023-05-24T04:58:36;97925.22;;;15.92;100.00
65756;BME280;69208;47.502;18.940;2023-05-24T04:59:40;97923.69;;;15.91;100.00
65756;BME280;69208;47.502;18.940;2023-05-24T05:00:44;97920.94;;;16.00;100.00
65756;BME280;69208;47.502;18.940;2023-05-24T05:01:47;97921.34;;;16.02;100.00
65756;BME280;69208;47.502;18.940;2023-05-24T05:02:50;97917.63;;;15.91;100.00
65756;BME280;69208;47.502;18.940;2023-05-24T05:03:53;97928.72;;;15.97;100.00
65756;BME280;69208;47.502;18.940;2023-05-24T05:04:56;97921.69;;;16.01;100.00
65756;BME280;69208;47.502;18.940;2023-05-24T05:05:59;97923.31;;;16.05;100.00
65756;BME280;69208;47.502;18.940;2023-05-24T05:07:02;97928.50;;;16.02;100.00
65756;BME280;69208;47.502;18.940;2023-05-24T05:08:05;97926.53;;;15.99;100.00
65756;BME280;69208;47.502;18.940;2023-05-24T05:09:08;97925.22;;;15.92;100.00
65756;BME280;69208;47.502;18.940;2023-05-24T05:10:12;97931.50;;;16.00;100.00
65756;BME280;69208;47.502;18.940;2023-05-24T05:11:14;97936.91;;;15.91;100.00
65756;BME280;69208;47.502;18.940;2023-05-24T05:12:18;97934.03;;;15.84;100.00
65756;BME280;69208;47.502;18.940;2023-05-24T05:13:21;97931.06;;;15.98;100.00
65756;BME280;69208;47.502;18.940;2023-05-24T05:14:24;97942.47;;;16.02;100.00
65756;BME280;69208;47.502;18.940;2023-05-24T05:15:27;97932.91;;;16.10;100.00
65756;BME280;69208;47.502;18.940;2023-05-24T05:16:31;97928.59;;;16.05;100.00
65756;BME280;69208;47.502;18.940;2023-05-24T05:17:34;97930.38;;;16.01;100.00
65756;BME280;69208;47.502;18.940;2023-05-24T05:18:37;97936.31;;;16.10;100.00
65756;BME280;69208;47.502;18.940;2023-05-24T05:19:40;97936.63;;;16.09;100.00
65756;BME280;69208;47.502;18.940;2023-05-24T05:20:43;97937.84;;;16.11;100.00
65756;BME280;69208;47.502;18.940;2023-05-24T05:21:46;97941.47;;;16.19;100.00
65756;BME280;69208;47.502;18.940;2023-05-24T05:22:50;97933.19;;;16.33;100.00
65756;BME280;69208;47.502;18.940;2023-05-24T05:23:52;97943.41;;;16.34;100.00
65756;BME280;69208;47.502;18.940;2023-05-24T05:24:56;97943.75;;;16.33;100.00
65756;BME280;69208;47.502;18.940;2023-05-24T05:25:59;97938.88;;;16.35;100.00
65756;BME280;69208;47.502;18.940;2023-05-24T05:27:02;97940.91;;;16.26;100.00
65756;BME280;69208;47.502;18.940;2023-05-24T05:28:04;97939.03;;;16.26;100.00
65756;BME280;69208;47.502;18.940;2023-05-24T05:29:08;97938.34;;;16.29;100.00
65756;BME280;69208;47.502;18.940;2023-05-24T05:30:11;97945.53;;;16.29;100.00
65756;BME280;69208;47.502;18.940;2023-05-24T05:31:14;97943.28;;;16.43;100.00
65756;BME280;69208;47.502;18.940;2023-05-24T05:32:17;97939.66;;;16.35;100.00
65756;BME280;69208;47.502;18.940;2023-05-24T05:33:20;97938.66;;;16.40;100.00
65756;BME280;69208;47.502;18.940;2023-05-24T05:34:23;97939.38;;;16.53;100.00
65756;BME280;69208;47.502;18.940;2023-05-24T05:35:26;97949.16;;;16.65;100.00
65756;BME280;69208;47.502;18.940;2023-05-24T05:36:29;97947.84;;;16.58;100.00
65756;BME280;69208;47.502;18.940;2023-05-24T05:37:32;97939.59;;;16.60;100.00
65756;BME280;69208;47.502;18.940;2023-05-24T05:38:35;97950.28;;;16.64;100.00
65756;BME280;69208;47.502;18.940;2023-05-24T05:39:38;97941.22;;;16.65;100.00
65756;BME280;69208;47.502;18.940;2023-05-24T05:40:41;97948.59;;;16.71;100.00